Time;durP1;ratioP1;P1;durP2;ratioP2;P2;SDS_P1;SDS_P2;PMS_P1;PMS_P2;Temp;Humidity;BMP_temperature;BMP_pressure;BME280_temperature;BME280_humidity;BME280_pressure;Samples;Min_cycle;Max_cycle;Signal;HPM_P1;HPM_P2
2023/01/21 04:01:10;;;;;;;28.40;19.93;;;-5.10;99.90;;;;;;5782561;23;20354;-83
2023/01/21 04:03:36;;;;;;;25.57;19.30;;;-5.10;99.90;;;;;;5019051;28;20211;-82
2023/01/21 04:06:02;;;;;;;22.97;20.47;;;-5.10;99.90;;;;;;5019989;28;20199;-83
2023/01/21 04:08:27;;;;;;;29.73;21.07;;;-5.00;99.90;;;;;;5013848;28;20209;-83
2023/01/21 04:10:53;;;;;;;26.63;20.77;;;-5.10;99.90;;;;;;5018091;28;20200;-83
2023/01/21 04:13:19;;;;;;;25.00;19.10;;;-5.10;99.90;;;;;;5018373;28;20562;-83
2023/01/21 04:15:45;;;;;;;25.57;18.40;;;-5.10;99.90;;;;;;5018242;28;20188;-82
2023/01/21 04:18:11;;;;;;;20.83;17.57;;;-5.20;99.90;;;;;;5015301;28;20194;-82
2023/01/21 04:20:37;;;;;;;25.83;16.77;;;-5.20;99.90;;;;;;5014904;28;20651;-81
2023/01/21 04:23:03;;;;;;;24.73;19.97;;;-5.30;99.90;;;;;;5014382;28;20188;-84
2023/01/21 04:25:29;;;;;;;25.07;18.27;;;-5.50;99.90;;;;;;5017254;28;20189;-85
2023/01/21 04:27:54;;;;;;;30.07;17.77;;;-5.50;99.90;;;;;;5014805;28;20278;-78
2023/01/21 04:30:20;;;;;;;26.30;21.17;;;-5.50;99.90;;;;;;5004581;28;20180;-69
2023/01/21 04:32:46;;;;;;;23.10;18.10;;;-5.40;99.90;;;;;;4998459;28;20680;-66
2023/01/21 04:35:12;;;;;;;23.47;19.10;;;-5.40;99.90;;;;;;5004211;28;20179;-73
2023/01/21 04:37:37;;;;;;;24.33;18.63;;;-5.40;99.90;;;;;;4991453;28;20283;-70
2023/01/21 04:40:03;;;;;;;22.43;18.43;;;-5.40;99.90;;;;;;4993975;28;20181;-70
2023/01/21 04:42:29;;;;;;;27.63;17.10;;;-5.40;99.90;;;;;;5011048;28;20211;-70
2023/01/21 04:44:55;;;;;;;24.10;16.97;;;-5.40;99.90;;;;;;5010585;28;20559;-70
2023/01/21 04:47:21;;;;;;;25.63;17.33;;;-5.50;99.90;;;;;;5010424;28;20203;-69
2023/01/21 04:49:47;;;;;;;22.37;17.40;;;-5.50;99.90;;;;;;5024414;28;20709;-69
2023/01/21 04:52:13;;;;;;;23.03;18.03;;;-5.50;99.90;;;;;;5010454;28;20195;-69
2023/01/21 04:54:39;;;;;;;18.67;16.20;;;-5.50;99.90;;;;;;5010303;28;20198;-69
2023/01/21 04:57:04;;;;;;;18.43;15.73;;;-5.50;99.90;;;;;;5010258;28;20198;-70
2023/01/21 04:59:30;;;;;;;22.33;16.37;;;-5.50;99.90;;;;;;5009083;28;20182;-70
2023/01/21 05:01:56;;;;;;;22.77;16.97;;;-5.50;99.90;;;;;;5009564;28;20716;-69
2023/01/21 05:04:22;;;;;;;26.13;17.23;;;-5.50;99.90;;;;;;5010486;28;20655;-69
2023/01/21 05:06:47;;;;;;;22.53;16.57;;;-5.60;99.90;;;;;;5010148;28;20215;-70
2023/01/21 05:09:13;;;;;;;22.37;16.90;;;-5.60;99.90;;;;;;5013173;28;20179;-70
2023/01/21 05:11:39;;;;;;;19.40;16.10;;;-5.60;99.90;;;;;;5013748;28;20706;-69
2023/01/21 05:14:05;;;;;;;21.30;16.87;;;-5.70;99.90;;;;;;5014036;28;20211;-70
2023/01/21 05:16:30;;;;;;;21.63;15.43;;;-5.70;99.90;;;;;;5013654;28;20223;-69
2023/01/21 05:18:56;;;;;;;21.77;15.73;;;-5.70;99.90;;;;;;5013607;28;20184;-69
2023/01/21 05:21:22;;;;;;;19.33;15.97;;;-5.80;99.90;;;;;;5013560;28;20211;-70
2023/01/21 05:23:48;;;;;;;21.53;15.87;;;-5.80;99.90;;;;;;5014182;28;20184;-69
2023/01/21 05:26:13;;;;;;;17.80;15.13;;;-5.80;99.90;;;;;;5027696;28;20187;-69
2023/01/21 05:28:39;;;;;;;15.93;14.27;;;-5.80;99.90;;;;;;5012501;28;20171;-69
2023/01/21 05:31:05;;;;;;;24.40;15.50;;;-5.70;99.90;;;;;;5012332;28;20199;-69
2023/01/21 05:33:34;;;;;;;21.90;15.67;;;-5.70;99.90;;;;;;5013774;28;20737;-69
2023/01/21 05:36:01;;;;;;;21.80;16.00;;;-5.70;99.90;;;;;;5013606;28;20229;-69
2023/01/21 05:38:27;;;;;;;19.87;17.47;;;-5.70;99.90;;;;;;5013612;28;20187;-69
2023/01/21 05:41:01;;;;;;;22.10;16.80;;;-5.70;99.90;;;;;;5011954;28;20652;-69
2023/01/21 05:43:28;;;;;;;20.43;16.00;;;-5.60;99.90;;;;;;5013726;28;20188;-69
2023/01/21 05:45:54;;;;;;;17.57;15.63;;;-5.50;99.90;;;;;;5012043;28;20180;-69
2023/01/21 05:48:20;;;;;;;19.37;16.57;;;-5.60;99.90;;;;;;5013295;28;20208;-70
2023/01/21 05:50:46;;;;;;;23.40;18.37;;;-5.60;99.90;;;;;;5013114;28;20179;-69
2023/01/21 05:53:12;;;;;;;25.20;16.57;;;-5.60;99.90;;;;;;5014079;28;20489;-69
2023/01/21 05:55:38;;;;;;;25.50;16.70;;;-5.60;99.90;;;;;;5013468;28;20176;-69
2023/01/21 05:58:05;;;;;;;24.47;17.70;;;-5.60;99.90;;;;;;5012946;28;20186;-69
2023/01/21 06:00:31;;;;;;;20.33;16.10;;;-5.60;99.90;;;;;;5012669;28;20658;-69
2023/01/21 06:03:00;;;;;;;24.20;18.87;;;-5.50;99.90;;;;;;5013384;28;20234;-70
2023/01/21 06:05:27;;;;;;;18.60;15.73;;;-5.50;99.90;;;;;;5013104;28;20215;-69
2023/01/21 06:07:52;;;;;;;22.97;17.30;;;-5.60;99.90;;;;;;5011385;28;20222;-69
2023/01/21 06:10:19;;;;;;;29.60;16.37;;;-5.60;99.90;;;;;;5011728;28;20176;-69
2023/01/21 06:12:45;;;;;;;20.93;17.30;;;-5.50;99.90;;;;;;5011297;28;20196;-69
2023/01/21 06:15:12;;;;;;;25.07;18.40;;;-5.60;99.90;;;;;;5011998;28;20191;-69
2023/01/21 06:17:39;;;;;;;31.43;20.57;;;-5.60;99.90;;;;;;5012204;28;20187;-71
2023/01/21 06:20:06;;;;;;;26.67;19.70;;;-5.60;99.90;;;;;;5011595;28;20175;-70
2023/01/21 06:22:32;;;;;;;29.10;19.77;;;-5.60;99.90;;;;;;5012637;28;20204;-69
2023/01/21 06:24:58;;;;;;;30.13;20.20;;;-5.50;99.90;;;;;;5005167;28;20712;-69
2023/01/21 06:27:24;;;;;;;25.43;19.50;;;-5.50;99.90;;;;;;4991676;28;20818;-68
2023/01/21 06:29:49;;;;;;;23.57;17.70;;;-5.50;99.90;;;;;;4992877;28;20589;-71
2023/01/21 06:32:16;;;;;;;23.73;17.30;;;-5.40;99.90;;;;;;5011656;28;20571;-69
2023/01/21 06:34:41;;;;;;;28.57;20.60;;;-5.50;99.90;;;;;;5011309;28;20176;-69
2023/01/21 06:37:07;;;;;;;31.37;19.53;;;-5.40;99.90;;;;;;5010898;28;20719;-69
2023/01/21 06:39:33;;;;;;;27.90;20.00;;;-5.30;99.90;;;;;;5012994;28;20184;-70
2023/01/21 06:41:59;;;;;;;24.77;19.30;;;-5.30;99.90;;;;;;5012206;28;20590;-69
2023/01/21 06:44:25;;;;;;;24.23;18.40;;;-5.30;99.90;;;;;;5012588;28;20180;-69
2023/01/21 06:46:50;;;;;;;26.97;18.27;;;-5.30;99.90;;;;;;5011070;28;20218;-69
2023/01/21 06:49:16;;;;;;;23.60;18.47;;;-5.20;99.90;;;;;;5002497;28;20272;-70
2023/01/21 06:51:42;;;;;;;26.17;17.53;;;-5.20;99.90;;;;;;5004828;28;20249;-70
2023/01/21 06:54:10;;;;;;;23.23;17.43;;;-5.20;99.90;;;;;;5012300;28;20179;-70
2023/01/21 06:56:36;;;;;;;20.80;18.10;;;-5.10;99.90;;;;;;5010524;28;20183;-69
2023/01/21 06:59:02;;;;;;;22.23;18.07;;;-5.00;99.90;;;;;;5011869;28;20237;-70
2023/01/21 07:01:28;;;;;;;24.97;18.83;;;-4.80;99.90;;;;;;5011455;28;20215;-70
2023/01/21 07:03:54;;;;;;;23.90;18.07;;;-4.60;99.90;;;;;;5011120;28;20183;-70
2023/01/21 07:06:24;;;;;;;22.27;17.90;;;-4.70;99.90;;;;;;5012014;28;20187;-70
2023/01/21 07:08:50;;;;;;;29.43;19.93;;;-4.60;99.90;;;;;;5011767;28;20184;-69
2023/01/21 07:11:15;;;;;;;21.97;19.53;;;-4.50;99.90;;;;;;5011877;28;20203;-70
2023/01/21 07:13:41;;;;;;;22.87;18.63;;;-4.40;99.90;;;;;;5010500;28;20180;-67
2023/01/21 07:16:07;;;;;;;23.83;19.13;;;-4.30;99.90;;;;;;5010887;28;20272;-67
2023/01/21 07:18:33;;;;;;;22.43;17.47;;;-4.20;99.90;;;;;;5011263;28;20187;-67
2023/01/21 07:20:59;;;;;;;21.13;17.83;;;-4.00;99.90;;;;;;5000017;28;20291;-67
2023/01/21 07:23:25;;;;;;;24.43;17.93;;;-3.90;99.90;;;;;;5009941;28;20184;-70
2023/01/21 07:25:51;;;;;;;27.30;20.57;;;-3.90;99.90;;;;;;5011804;28;20194;-69
2023/01/21 07:28:16;;;;;;;25.97;19.50;;;-3.80;99.90;;;;;;5010299;28;20848;-70
2023/01/21 07:30:42;;;;;;;21.43;17.03;;;-3.70;99.90;;;;;;5011819;28;20675;-69
2023/01/21 07:33:09;;;;;;;25.53;19.43;;;-3.60;99.90;;;;;;5012159;28;20191;-70
2023/01/21 07:35:35;;;;;;;22.07;19.50;;;-3.60;99.90;;;;;;5012527;28;20179;-70
2023/01/21 07:38:01;;;;;;;24.50;19.00;;;-3.50;99.90;;;;;;5011827;28;20186;-70
2023/01/21 07:40:27;;;;;;;23.50;19.23;;;-3.50;99.90;;;;;;5011095;28;20183;-69
2023/01/21 07:42:53;;;;;;;26.33;19.43;;;-3.40;99.90;;;;;;5011429;28;20187;-70
2023/01/21 07:45:20;;;;;;;37.73;27.47;;;-3.40;99.90;;;;;;5010303;28;20643;-70
2023/01/21 07:47:46;;;;;;;42.40;37.83;;;-3.30;99.90;;;;;;5011311;28;21008;-71
2023/01/21 07:50:12;;;;;;;99.63;92.13;;;-3.30;99.90;;;;;;5011247;28;20179;-71
2023/01/21 07:52:38;;;;;;;121.40;113.83;;;-3.20;99.90;;;;;;5011364;28;20547;-70
2023/01/21 07:55:04;;;;;;;148.80;139.53;;;-3.10;99.90;;;;;;5010994;28;20270;-70
2023/01/21 07:57:30;;;;;;;117.83;109.80;;;-3.00;99.90;;;;;;5009974;28;20274;-70
2023/01/21 07:59:56;;;;;;;79.40;73.90;;;-2.90;99.90;;;;;;5011297;28;20283;-70
2023/01/21 08:02:22;;;;;;;40.73;35.23;;;-2.90;99.90;;;;;;5009758;28;20226;-70
2023/01/21 08:04:47;;;;;;;25.37;20.40;;;-2.80;99.90;;;;;;5011408;28;20188;-70
2023/01/21 08:07:13;;;;;;;28.97;23.27;;;-2.80;99.90;;;;;;5011025;28;20583;-70
2023/01/21 08:09:40;;;;;;;26.33;23.00;;;-2.70;99.90;;;;;;5011063;28;20265;-71
2023/01/21 08:12:07;;;;;;;22.60;19.67;;;-2.70;99.90;;;;;;5009676;28;20203;-71
2023/01/21 08:14:34;;;;;;;23.40;20.47;;;-2.60;99.90;;;;;;5011366;28;20184;-71
2023/01/21 08:17:00;;;;;;;28.90;19.20;;;-2.50;99.90;;;;;;5011095;28;20771;-71
2023/01/21 08:19:26;;;;;;;27.20;20.23;;;-2.40;99.90;;;;;;5010150;28;20775;-71
2023/01/21 08:21:52;;;;;;;27.70;22.30;;;-2.40;99.90;;;;;;5010629;28;20215;-69
2023/01/21 08:24:18;;;;;;;29.77;23.20;;;-2.40;99.90;;;;;;5010988;28;20187;-69
2023/01/21 08:26:44;;;;;;;29.23;21.73;;;-2.30;99.90;;;;;;5011215;28;20262;-69
2023/01/21 08:29:10;;;;;;;34.87;29.07;;;-2.30;99.90;;;;;;5011105;28;20183;-71
2023/01/21 08:31:36;;;;;;;40.27;26.67;;;-2.20;99.90;;;;;;5009638;28;20229;-71
2023/01/21 08:34:02;;;;;;;45.47;28.87;;;-2.10;99.90;;;;;;5009684;28;20604;-71
2023/01/21 08:36:27;;;;;;;34.73;23.57;;;-2.10;99.90;;;;;;5010642;28;20188;-71
2023/01/21 08:38:54;;;;;;;32.90;25.60;;;-2.00;99.90;;;;;;5010617;28;20587;-70
2023/01/21 08:41:20;;;;;;;36.50;29.23;;;-1.90;99.90;;;;;;5010341;28;20207;-72
2023/01/21 08:43:46;;;;;;;32.00;28.37;;;-1.90;99.90;;;;;;5009505;28;20678;-70
2023/01/21 08:46:13;;;;;;;31.03;26.53;;;-1.80;99.90;;;;;;5010795;28;20188;-70
2023/01/21 08:48:39;;;;;;;26.17;20.27;;;-1.70;99.90;;;;;;5010139;28;20650;-70
2023/01/21 08:51:05;;;;;;;29.03;20.73;;;-1.50;99.90;;;;;;5003521;28;20214;-70
2023/01/21 08:53:31;;;;;;;29.53;20.40;;;-1.50;99.90;;;;;;5009178;28;20651;-70
2023/01/21 08:56:01;;;;;;;31.87;19.30;;;-1.40;99.90;;;;;;5010396;28;20184;-70
2023/01/21 08:58:27;;;;;;;30.07;22.20;;;-1.30;99.90;;;;;;5002849;28;20199;-70
2023/01/21 09:00:53;;;;;;;28.20;20.30;;;-1.20;99.90;;;;;;4998410;28;20223;-70
2023/01/21 09:03:19;;;;;;;23.57;19.03;;;-1.20;99.90;;;;;;5009438;28;20240;-71
2023/01/21 09:05:45;;;;;;;25.27;18.23;;;-1.10;99.90;;;;;;4994409;28;20665;-72
2023/01/21 09:08:11;;;;;;;27.30;19.30;;;-1.10;99.90;;;;;;4990350;28;20715;-71
2023/01/21 09:13:21;;;;;;;33.10;19.30;;;-1.00;99.90;;;;;;5011496;28;20176;-70
2023/01/21 09:15:47;;;;;;;27.50;20.20;;;-1.00;99.90;;;;;;5008807;28;20198;-71
2023/01/21 09:18:13;;;;;;;29.30;21.27;;;-1.00;99.90;;;;;;5000915;28;20188;-71
2023/01/21 09:20:39;;;;;;;25.83;18.27;;;-1.00;99.90;;;;;;4993299;28;20210;-70
2023/01/21 09:23:22;;;;;;;30.13;18.70;;;-1.00;99.90;;;;;;4995839;28;20181;-69
2023/01/21 09:25:52;;;;;;;29.57;19.33;;;-0.90;99.90;;;;;;5004278;28;20198;-74
2023/01/21 09:28:19;;;;;;;31.33;20.47;;;-0.80;99.90;;;;;;5008546;28;20212;-71
2023/01/21 09:30:45;;;;;;;27.53;18.63;;;-0.70;99.90;;;;;;5010219;28;20193;-74
2023/01/21 09:33:12;;;;;;;28.50;19.87;;;-0.70;99.90;;;;;;4999625;28;20220;-73
2023/01/21 09:35:38;;;;;;;26.47;19.50;;;-0.60;99.90;;;;;;4988716;28;20189;-74
2023/01/21 09:38:04;;;;;;;32.10;20.03;;;-0.60;99.90;;;;;;4992880;28;20194;-74
2023/01/21 09:40:30;;;;;;;29.30;20.07;;;-0.50;99.90;;;;;;5008106;28;20305;-74
2023/01/21 09:42:56;;;;;;;27.87;18.87;;;-0.40;99.90;;;;;;5016818;28;20189;-74
2023/01/21 09:45:23;;;;;;;31.20;19.90;;;-0.30;99.90;;;;;;5008865;28;20186;-73
2023/01/21 09:47:50;;;;;;;32.43;21.93;;;-0.40;99.90;;;;;;5008527;28;20292;-73
2023/01/21 09:50:20;;;;;;;36.47;21.00;;;-0.50;99.90;;;;;;5009050;28;20183;-75
2023/01/21 09:52:50;;;;;;;32.67;20.27;;;-0.50;99.90;;;;;;5009100;28;20208;-74
2023/01/21 09:55:28;;;;;;;29.10;19.57;;;-0.50;99.90;;;;;;5008297;28;20553;-73
2023/01/21 09:57:59;;;;;;;30.00;21.17;;;-0.50;99.90;;;;;;5001707;28;20191;-74
2023/01/21 10:00:35;;;;;;;30.57;19.37;;;-0.50;99.90;;;;;;5000731;28;20185;-72
2023/01/21 10:03:07;;;;;;;28.13;19.10;;;-0.60;99.90;;;;;;5002504;28;20194;-74
2023/01/21 10:05:51;;;;;;;28.40;19.63;;;-0.50;99.90;;;;;;5001558;28;20651;-73
2023/01/21 10:08:32;;;;;;;31.27;19.93;;;-0.50;99.90;;;;;;5013109;28;20203;-73
2023/01/21 10:11:43;;;;;;;29.33;20.10;;;-0.50;99.90;;;;;;5013428;28;20206;-74
2023/01/21 10:14:14;;;;;;;32.87;19.83;;;-0.50;99.90;;;;;;4971259;28;20186;-75
2023/01/21 10:16:52;;;;;;;31.63;20.73;;;-0.40;99.90;;;;;;5009055;28;20661;-75
2023/01/21 10:19:27;;;;;;;31.40;21.67;;;-0.30;99.90;;;;;;5013296;28;20678;-76
2023/01/21 10:21:56;;;;;;;28.47;19.37;;;-0.20;99.90;;;;;;5011544;28;20231;-74
2023/01/21 10:24:37;;;;;;;35.63;22.10;;;-0.10;99.90;;;;;;4999896;28;20221;-74
2023/01/21 10:27:04;;;;;;;37.43;21.00;;;-0.10;99.90;;;;;;5012309;28;20775;-74
2023/01/21 10:29:32;;;;;;;33.00;22.73;;;0.00;99.90;;;;;;5013449;28;20240;-74
2023/01/21 10:32:07;;;;;;;37.80;21.00;;;0.00;99.90;;;;;;4998054;28;20554;-74
2023/01/21 10:34:38;;;;;;;36.27;22.00;;;0.10;99.90;;;;;;4992071;28;20723;-73
2023/01/21 10:37:38;;;;;;;33.60;19.60;;;0.20;99.90;;;;;;4998152;28;20277;-70
2023/01/21 10:40:10;;;;;;;31.43;21.27;;;0.10;99.90;;;;;;4996559;28;20202;-72
2023/01/21 10:42:43;;;;;;;38.70;21.90;;;0.00;99.90;;;;;;4992809;28;20202;-71
2023/01/21 10:45:12;;;;;;;29.87;20.20;;;0.10;99.90;;;;;;4995932;28;20575;-70
2023/01/21 10:47:37;;;;;;;32.97;19.70;;;0.00;99.90;;;;;;5011558;28;20570;-71
2023/01/21 10:50:39;;;;;;;33.80;23.13;;;0.00;99.90;;;;;;4997638;28;20184;-70
2023/01/21 10:53:19;;;;;;;39.60;21.50;;;0.00;99.90;;;;;;4992867;28;20214;-73
2023/01/21 10:56:04;;;;;;;41.47;22.10;;;-0.10;99.90;;;;;;4999175;28;20639;-72
2023/01/21 10:58:43;;;;;;;33.43;22.47;;;-0.10;99.90;;;;;;5011969;28;20224;-71
2023/01/21 11:01:35;;;;;;;33.37;21.73;;;-0.10;99.90;;;;;;4996927;28;20231;-71
2023/01/21 11:04:21;;;;;;;36.10;22.47;;;-0.10;99.90;;;;;;4997161;28;20225;-71
2023/01/21 11:07:00;;;;;;;33.53;22.03;;;0.00;99.90;;;;;;4990007;28;20214;-71
2023/01/21 11:09:30;;;;;;;37.30;20.90;;;0.00;99.90;;;;;;4991235;28;20198;-71
2023/01/21 11:11:56;;;;;;;39.77;23.20;;;0.00;99.90;;;;;;4995447;28;20567;-70
2023/01/21 11:14:24;;;;;;;38.90;23.50;;;0.00;99.90;;;;;;5009888;28;20179;-72
2023/01/21 11:16:51;;;;;;;35.93;22.70;;;0.20;99.90;;;;;;5011989;28;20218;-72
2023/01/21 11:19:23;;;;;;;33.87;21.53;;;0.20;99.90;;;;;;5012074;28;20263;-74
2023/01/21 11:22:15;;;;;;;32.80;22.30;;;0.30;99.90;;;;;;5009346;28;20258;-72
2023/01/21 11:24:47;;;;;;;36.67;22.17;;;0.30;99.90;;;;;;4995234;28;20184;-71
2023/01/21 11:27:37;;;;;;;28.47;18.30;;;0.30;99.90;;;;;;4990792;28;20676;-71
2023/01/21 11:30:26;;;;;;;34.50;21.00;;;0.40;99.90;;;;;;4992884;28;20184;-73
2023/01/21 11:32:52;;;;;;;30.80;20.07;;;0.50;99.90;;;;;;5009854;28;20213;-72
2023/01/21 11:35:21;;;;;;;33.53;21.10;;;0.60;99.90;;;;;;5011610;28;20176;-72
2023/01/21 11:37:47;;;;;;;35.40;20.83;;;0.80;99.90;;;;;;5005762;28;20232;-71
2023/01/21 11:40:22;;;;;;;32.93;21.87;;;0.80;99.90;;;;;;5006704;28;20237;-70
2023/01/21 11:42:50;;;;;;;31.77;20.73;;;0.80;99.90;;;;;;4991367;28;20208;-72
2023/01/21 11:45:35;;;;;;;33.73;21.10;;;0.80;99.90;;;;;;4991736;28;20219;-71
2023/01/21 11:48:20;;;;;;;32.87;19.20;;;0.80;99.90;;;;;;4991666;28;20212;-71
2023/01/21 11:50:46;;;;;;;27.00;20.20;;;0.80;99.90;;;;;;5003603;28;20623;-71
2023/01/21 11:53:16;;;;;;;27.53;20.07;;;0.90;99.90;;;;;;5008879;28;20183;-69
2023/01/21 11:55:46;;;;;;;29.73;20.37;;;1.00;99.90;;;;;;5001014;28;20666;-70
2023/01/21 11:58:27;;;;;;;35.47;19.77;;;1.00;99.90;;;;;;5009985;28;20183;-70
2023/01/21 12:00:55;;;;;;;29.10;20.73;;;0.90;99.90;;;;;;5011479;28;20207;-71
2023/01/21 12:03:25;;;;;;;31.10;18.93;;;1.00;99.90;;;;;;5009908;28;20186;-71
2023/01/21 12:05:52;;;;;;;27.73;18.13;;;1.00;99.90;;;;;;4992703;28;20561;-70
2023/01/21 12:08:28;;;;;;;22.90;16.27;;;0.90;99.90;;;;;;5006402;28;20203;-70
2023/01/21 12:10:57;;;;;;;27.50;18.17;;;1.00;99.90;;;;;;5010329;28;20199;-70
2023/01/21 12:13:41;;;;;;;25.37;18.57;;;1.10;99.90;;;;;;4995044;28;20180;-71
2023/01/21 12:16:25;;;;;;;26.40;17.77;;;1.30;99.90;;;;;;4989884;28;20187;-70
2023/01/21 12:19:20;;;;;;;25.50;16.47;;;1.40;99.90;;;;;;4989815;28;20203;-70
2023/01/21 12:22:11;;;;;;;21.97;16.13;;;1.20;99.90;;;;;;5004544;28;20231;-70
2023/01/21 12:25:01;;;;;;;26.97;17.57;;;1.20;99.90;;;;;;5009789;28;20180;-70
2023/01/21 12:27:51;;;;;;;22.80;15.90;;;1.10;99.90;;;;;;5010388;28;20260;-70
2023/01/21 12:30:29;;;;;;;22.10;15.47;;;0.90;99.90;;;;;;5010332;28;20190;-71
2023/01/21 12:33:00;;;;;;;24.07;15.40;;;0.90;99.90;;;;;;5010608;28;20232;-71
2023/01/21 12:35:34;;;;;;;22.27;16.70;;;0.80;99.90;;;;;;5010750;28;20628;-71
2023/01/21 12:38:17;;;;;;;24.97;16.60;;;0.80;99.90;;;;;;5009937;28;20212;-70
2023/01/21 12:40:46;;;;;;;26.07;15.33;;;0.70;99.90;;;;;;5009164;28;20176;-71
2023/01/21 12:43:24;;;;;;;21.30;14.60;;;0.80;99.90;;;;;;5010474;28;20196;-70
2023/01/21 12:46:01;;;;;;;23.83;14.87;;;0.80;99.90;;;;;;5010200;28;20282;-71
2023/01/21 12:48:40;;;;;;;18.87;14.97;;;0.90;99.90;;;;;;5009701;28;20215;-71
2023/01/21 12:51:12;;;;;;;22.13;16.20;;;0.90;99.90;;;;;;5008986;28;20686;-71
2023/01/21 12:53:45;;;;;;;24.07;18.03;;;1.00;99.90;;;;;;5009149;28;20207;-70
2023/01/21 12:56:37;;;;;;;22.17;16.47;;;0.90;99.90;;;;;;5010438;28;20193;-69
2023/01/21 12:59:41;;;;;;;23.77;17.07;;;0.90;99.90;;;;;;5006403;28;20192;-70
2023/01/21 13:02:33;;;;;;;21.63;15.83;;;0.90;99.90;;;;;;5008510;28;20304;-70
2023/01/21 13:05:11;;;;;;;39.50;22.77;;;0.90;99.90;;;;;;5010214;28;20276;-72
2023/01/21 13:07:39;;;;;;;23.33;17.40;;;0.90;99.90;;;;;;5009687;28;20221;-69
2023/01/21 13:10:14;;;;;;;24.03;16.30;;;0.90;99.90;;;;;;5009138;28;20275;-70
2023/01/21 13:12:45;;;;;;;20.67;16.43;;;0.90;99.90;;;;;;5005722;28;20200;-70
2023/01/21 13:15:16;;;;;;;20.17;16.27;;;0.90;99.90;;;;;;5006171;28;20217;-70
2023/01/21 13:18:05;;;;;;;24.27;15.83;;;0.80;99.90;;;;;;4991262;28;20198;-70
2023/01/21 13:20:37;;;;;;;20.80;16.37;;;0.80;99.90;;;;;;4992093;28;20195;-72
2023/01/21 13:23:25;;;;;;;21.87;16.03;;;0.80;99.90;;;;;;5010287;28;20275;-69
2023/01/21 13:26:30;;;;;;;19.63;15.10;;;0.80;99.90;;;;;;5010664;28;20274;-72
2023/01/21 13:29:11;;;;;;;20.13;14.53;;;0.80;99.90;;;;;;4989718;28;20194;-70
2023/01/21 13:31:56;;;;;;;20.00;14.53;;;0.90;99.90;;;;;;5011809;28;20208;-70
2023/01/21 13:34:35;;;;;;;21.57;15.43;;;0.90;99.90;;;;;;5011997;28;20194;-70
2023/01/21 13:37:12;;;;;;;19.90;14.37;;;0.90;99.90;;;;;;5013556;28;20180;-71
2023/01/21 13:40:17;;;;;;;20.03;15.03;;;0.90;99.90;;;;;;5012294;28;20183;-71
2023/01/21 13:42:43;;;;;;;22.00;14.00;;;0.80;99.90;;;;;;4993545;28;20229;-70
2023/01/21 13:45:41;;;;;;;18.47;15.47;;;0.90;99.90;;;;;;4992709;28;20644;-71
2023/01/21 13:48:10;;;;;;;22.37;15.47;;;0.90;99.90;;;;;;4960297;28;20230;-71
2023/01/21 13:50:50;;;;;;;18.07;14.20;;;0.90;99.90;;;;;;4995955;28;20643;-71
2023/01/21 13:53:19;;;;;;;19.03;13.90;;;0.80;99.90;;;;;;5013222;28;20543;-70
2023/01/21 13:56:05;;;;;;;19.10;14.97;;;0.80;99.90;;;;;;5013945;28;20257;-71
2023/01/21 13:58:34;;;;;;;23.53;14.20;;;0.70;99.90;;;;;;5014813;28;20237;-71
2023/01/21 14:01:08;;;;;;;23.47;14.40;;;0.80;99.90;;;;;;5013393;28;20214;-71
2023/01/21 14:03:45;;;;;;;19.60;14.57;;;0.80;99.90;;;;;;5012196;28;20182;-73
2023/01/21 14:06:33;;;;;;;19.93;14.53;;;0.80;99.90;;;;;;5012173;28;20707;-71
2023/01/21 14:09:15;;;;;;;16.90;12.87;;;0.80;99.90;;;;;;5012675;28;20202;-71
2023/01/21 14:12:10;;;;;;;22.13;14.83;;;0.80;99.90;;;;;;5011556;28;20701;-72
2023/01/21 14:15:12;;;;;;;17.00;13.70;;;0.80;99.90;;;;;;5000264;28;20572;-71
2023/01/21 14:17:58;;;;;;;16.60;13.07;;;0.90;99.90;;;;;;5012535;28;20191;-71
2023/01/21 14:20:51;;;;;;;22.43;14.83;;;0.90;99.90;;;;;;5012797;28;20191;-69
2023/01/21 14:23:19;;;;;;;23.03;14.20;;;0.90;99.90;;;;;;4992259;28;20714;-70
2023/01/21 14:26:43;;;;;;;17.90;14.23;;;1.00;99.90;;;;;;4993265;28;20187;-71
2023/01/21 14:29:46;;;;;;;19.13;14.70;;;0.90;99.90;;;;;;4943150;28;20203;-71
2023/01/21 14:32:52;;;;;;;21.07;14.53;;;0.80;99.90;;;;;;4966200;28;20212;-71
2023/01/21 14:35:40;;;;;;;18.37;14.23;;;0.80;99.90;;;;;;5012325;28;20274;-70
2023/01/21 14:38:20;;;;;;;23.43;13.90;;;0.70;99.90;;;;;;5012024;28;20192;-70
2023/01/21 14:41:01;;;;;;;17.07;13.63;;;0.70;99.90;;;;;;5010913;28;20191;-70
2023/01/21 14:43:30;;;;;;;15.80;12.30;;;0.70;99.90;;;;;;5012448;28;20183;-70
2023/01/21 14:45:57;;;;;;;22.03;14.17;;;0.60;99.90;;;;;;5012268;28;20181;-70
2023/01/21 14:48:30;;;;;;;18.67;12.90;;;0.60;99.90;;;;;;5012088;28;20274;-72
2023/01/21 14:51:19;;;;;;;18.23;12.80;;;0.50;99.90;;;;;;5012198;28;20561;-73
2023/01/21 14:53:47;;;;;;;18.47;13.20;;;0.50;99.90;;;;;;5011033;28;20177;-70
2023/01/21 14:56:21;;;;;;;19.13;13.00;;;0.50;99.90;;;;;;5010679;28;20171;-71
2023/01/21 14:58:50;;;;;;;17.70;12.10;;;0.50;99.90;;;;;;5010474;28;20180;-70
2023/01/21 15:01:32;;;;;;;17.60;13.43;;;0.50;99.90;;;;;;5010485;28;20207;-71
2023/01/21 15:04:06;;;;;;;17.67;12.60;;;0.50;99.90;;;;;;5010354;28;20205;-73
2023/01/21 15:06:37;;;;;;;18.43;12.23;;;0.40;99.90;;;;;;4993188;28;20628;-73
2023/01/21 15:09:04;;;;;;;15.27;12.13;;;0.40;99.90;;;;;;4992554;28;20269;-72
2023/01/21 15:11:39;;;;;;;14.13;11.27;;;0.40;99.90;;;;;;4999240;28;20192;-73
2023/01/21 15:14:09;;;;;;;12.20;9.83;;;0.40;99.90;;;;;;5010156;28;20182;-70
2023/01/21 15:16:38;;;;;;;9.87;8.97;;;0.40;99.90;;;;;;5010409;28;20185;-72
2023/01/21 15:19:32;;;;;;;14.80;10.77;;;0.30;99.90;;;;;;5011447;28;20680;-72
2023/01/21 15:22:19;;;;;;;14.87;12.07;;;0.40;99.90;;;;;;5011502;28;20201;-72
2023/01/21 15:25:13;;;;;;;14.47;11.37;;;0.40;99.90;;;;;;5009939;28;20226;-71
2023/01/21 15:27:39;;;;;;;16.67;12.27;;;0.40;99.90;;;;;;5011007;28;20268;-72
2023/01/21 15:30:04;;;;;;;13.20;11.10;;;0.40;99.90;;;;;;5011370;28;20175;-72
2023/01/21 15:32:36;;;;;;;14.33;11.63;;;0.40;99.90;;;;;;5010217;28;20272;-72
2023/01/21 15:35:09;;;;;;;14.73;12.17;;;0.50;99.90;;;;;;5010017;28;20724;-71
2023/01/21 15:37:38;;;;;;;13.83;10.60;;;0.50;99.90;;;;;;5009686;28;20175;-71
2023/01/21 15:40:36;;;;;;;14.77;11.80;;;0.50;99.90;;;;;;5009723;28;20199;-71
2023/01/21 15:43:10;;;;;;;12.07;10.57;;;0.40;99.90;;;;;;5012324;28;20617;-72
2023/01/21 15:45:45;;;;;;;13.07;11.67;;;0.50;99.90;;;;;;5012250;28;20191;-71
2023/01/21 15:48:33;;;;;;;12.03;10.43;;;0.40;99.90;;;;;;5009992;28;20236;-71
2023/01/21 15:51:15;;;;;;;13.90;12.00;;;0.40;99.90;;;;;;5010800;28;20206;-72
2023/01/21 15:53:40;;;;;;;14.50;12.17;;;0.40;99.90;;;;;;5012013;28;20179;-71
2023/01/21 15:56:15;;;;;;;15.03;11.87;;;0.30;99.90;;;;;;5010176;28;20582;-71
2023/01/21 15:59:01;;;;;;;14.00;11.47;;;0.30;99.90;;;;;;5009867;28;20216;-71
2023/01/21 16:01:37;;;;;;;18.37;13.10;;;0.30;99.90;;;;;;5009540;28;20597;-72
2023/01/21 16:04:28;;;;;;;36.60;33.70;;;0.30;99.90;;;;;;5010804;28;20182;-72
2023/01/21 16:07:07;;;;;;;14.87;11.70;;;0.30;99.90;;;;;;5008882;28;20208;-71
2023/01/21 16:09:45;;;;;;;13.63;11.23;;;0.30;99.90;;;;;;5010420;28;20218;-72
2023/01/21 16:12:52;;;;;;;16.20;12.47;;;0.30;99.90;;;;;;5010211;28;20205;-71
2023/01/21 16:15:39;;;;;;;13.97;11.23;;;0.20;99.90;;;;;;5028501;23;20222;-74
2023/01/21 16:18:23;;;;;;;14.17;12.63;;;0.20;99.90;;;;;;4969323;28;20669;-73
2023/01/21 16:20:54;;;;;;;14.20;11.23;;;0.20;99.90;;;;;;4970624;28;20542;-73
2023/01/21 16:23:23;;;;;;;17.27;15.47;;;0.20;99.90;;;;;;4991261;28;20192;-73
2023/01/21 16:25:51;;;;;;;15.90;11.50;;;0.20;99.90;;;;;;4991366;28;20235;-73
2023/01/21 16:28:18;;;;;;;17.17;13.13;;;0.30;99.90;;;;;;4989503;28;20647;-73
2023/01/21 16:30:56;;;;;;;21.47;13.50;;;0.30;99.90;;;;;;4991393;28;20804;-73
2023/01/21 16:33:22;;;;;;;13.93;12.13;;;0.30;99.90;;;;;;4974272;28;20270;-73
2023/01/21 16:35:57;;;;;;;15.60;12.30;;;0.20;99.90;;;;;;4990873;28;20215;-73
2023/01/21 16:38:25;;;;;;;14.10;11.13;;;0.20;99.90;;;;;;4990183;28;20180;-73
2023/01/21 16:41:11;;;;;;;15.00;10.70;;;0.20;99.90;;;;;;4989600;28;20240;-73
2023/01/21 16:43:48;;;;;;;15.83;11.93;;;0.20;99.90;;;;;;4990561;28;20273;-73
2023/01/21 16:46:21;;;;;;;12.80;11.10;;;0.20;99.90;;;;;;4991005;28;20239;-73
2023/01/21 16:48:59;;;;;;;15.07;11.17;;;0.20;99.90;;;;;;4988925;28;20365;-73
2023/01/21 16:51:35;;;;;;;13.47;11.37;;;0.10;99.90;;;;;;4990445;28;20183;-73
2023/01/21 16:54:16;;;;;;;15.97;11.60;;;0.10;99.90;;;;;;4991022;28;20176;-73
2023/01/21 16:56:47;;;;;;;13.37;10.30;;;0.10;99.90;;;;;;4990679;28;20237;-73
2023/01/21 16:59:39;;;;;;;12.77;11.47;;;0.10;99.90;;;;;;4990696;28;20183;-73
2023/01/21 17:02:19;;;;;;;13.33;10.63;;;0.10;99.90;;;;;;4990491;28;20214;-73